Map

Track Data

SID SEASON NUMBER BASIN SUBBASIN NAME ISO_TIME NATURE LAT LON WMO_WIND WMO_PRES WMO_AGENCY TRACK_TYPE DIST2LAND LANDFALL IFLAG USA_AGENCY USA_ATCF_ID USA_LAT USA_LON USA_RECORD USA_STATUS USA_WIND USA_PRES USA_SSHS USA_R34_NE USA_R34_SE USA_R34_SW USA_R34_NW USA_R50_NE USA_R50_SE USA_R50_SW USA_R50_NW USA_R64_NE USA_R64_SE USA_R64_SW USA_R64_NW USA_POCI USA_ROCI USA_RMW USA_EYE TOKYO_LAT TOKYO_LON TOKYO_GRADE TOKYO_WIND TOKYO_PRES TOKYO_R50_DIR TOKYO_R50_LONG TOKYO_R50_SHORT TOKYO_R30_DIR TOKYO_R30_LONG TOKYO_R30_SHORT TOKYO_LAND CMA_LAT CMA_LON CMA_CAT CMA_WIND CMA_PRES HKO_LAT HKO_LON HKO_CAT HKO_WIND HKO_PRES NEWDELHI_LAT NEWDELHI_LON NEWDELHI_GRADE NEWDELHI_WIND NEWDELHI_PRES NEWDELHI_CI NEWDELHI_DP NEWDELHI_POCI REUNION_LAT REUNION_LON REUNION_TYPE REUNION_WIND REUNION_PRES REUNION_TNUM REUNION_CI REUNION_RMW REUNION_R34_NE REUNION_R34_SE REUNION_R34_SW REUNION_R34_NW REUNION_R50_NE REUNION_R50_SE REUNION_R50_SW REUNION_R50_NW REUNION_R64_NE REUNION_R64_SE REUNION_R64_SW REUNION_R64_NW BOM_LAT BOM_LON BOM_TYPE BOM_WIND BOM_PRES BOM_TNUM BOM_CI BOM_RMW BOM_R34_NE BOM_R34_SE BOM_R34_SW BOM_R34_NW BOM_R50_NE BOM_R50_SE BOM_R50_SW BOM_R50_NW BOM_R64_NE BOM_R64_SE BOM_R64_SW BOM_R64_NW BOM_ROCI BOM_POCI BOM_EYE BOM_POS_METHOD BOM_PRES_METHOD NADI_LAT NADI_LON NADI_CAT NADI_WIND NADI_PRES WELLINGTON_LAT WELLINGTON_LON WELLINGTON_WIND WELLINGTON_PRES DS824_LAT DS824_LON DS824_STAGE DS824_WIND DS824_PRES TD9636_LAT TD9636_LON TD9636_STAGE TD9636_WIND TD9636_PRES TD9635_LAT TD9635_LON TD9635_WIND TD9635_PRES TD9635_ROCI NEUMANN_LAT NEUMANN_LON NEUMANN_CLASS NEUMANN_WIND NEUMANN_PRES MLC_LAT MLC_LON MLC_CLASS MLC_WIND MLC_PRES USA_GUST BOM_GUST BOM_GUST_PER REUNION_GUST REUNION_GUST_PER USA_SEAHGT USA_SEARAD_NE USA_SEARAD_SE USA_SEARAD_SW USA_SEARAD_NW STORM_SPEED STORM_DIR
1898052S07056 1898 7 SI MM NOT_NAMED 1898-02-21 06:00:00 NR -7.10000 55.6000 reunion main 888 872 _____O________ -1 -7.10000 55.6000 99 9.90000 3 225
1898052S07056 1898 7 SI MM NOT_NAMED 1898-02-21 09:00:00 NR -7.21487 55.4798 main 872 856 _____P________ -1 -7.21487 55.4798 99 3 226
1898052S07056 1898 7 SI MM NOT_NAMED 1898-02-21 12:00:00 NR -7.33307 55.3578 main 856 825 _____P________ -1 -7.33307 55.3578 99 3 225
1898052S07056 1898 7 SI MM NOT_NAMED 1898-02-21 15:00:00 NR -7.45795 55.2326 main 825 817 _____P________ -1 -7.45795 55.2326 99 4 231
1898052S07056 1898 7 SI MM NOT_NAMED 1898-02-21 18:00:00 NR -7.55430 55.0820 main 809 794 _____P____O___ -1 -7.59287 55.1025 99 -7.40000 55.0000 7 4 232
1898052S07056 1898 7 SI MM NOT_NAMED 1898-02-21 21:00:00 NR -7.67486 54.9501 main 794 770 _____P____P___ -1 -7.74118 54.9658 99 -7.54220 54.9187 7 4 224
1898052S07056 1898 7 SI MM NOT_NAMED 1898-02-22 00:00:00 NR -7.81679 54.8248 main 770 747 _____P____P___ -1 -7.90624 54.8210 99 -7.69752 54.8300 7 4 219
1898052S07056 1898 7 SI MM NOT_NAMED 1898-02-22 03:00:00 NR -7.98524 54.6962 main 747 724 _____P____P___ -1 -8.09140 54.6662 99 -7.87908 54.7262 7 5 215
1898052S07056 1898 7 SI MM NOT_NAMED 1898-02-22 06:00:00 NR -8.20000 54.5500 reunion main 724 693 _____O____O___ -1 -8.30000 54.5000 99 9.90000 -8.10000 54.6000 7 6 214
1898052S07056 1898 7 SI MM NOT_NAMED 1898-02-22 09:00:00 NR -8.45095 54.3827 main 686 655 _____P____P___ -1 -8.53380 54.3205 99 -8.36809 54.4450 7 6 214
1898052S07056 1898 7 SI MM NOT_NAMED 1898-02-22 12:00:00 NR -8.72907 54.1927 main 655 617 _____P____P___ -1 -8.78820 54.1254 99 -8.66994 54.2599 7 7 215
1898052S07056 1898 7 SI MM NOT_NAMED 1898-02-22 15:00:00 NR -9.02191 53.9787 main 617 580 _____P____P___ -1 -9.05700 53.9126 99 -8.98681 54.0449 7 7 217
1898052S07056 1898 7 SI MM NOT_NAMED 1898-02-22 18:00:00 NR -9.31701 53.7398 main 571 534 _____P____O___ -1 -9.33401 53.6796 99 -9.30000 53.8000 7 8 220
1898052S07056 1898 7 SI MM NOT_NAMED 1898-02-22 21:00:00 NR -9.60362 53.4886 main 534 488 _____P____P___ -1 -9.61302 53.4241 99 -9.59422 53.5530 7 8 223
1898052S07056 1898 7 SI MM NOT_NAMED 1898-02-23 00:00:00 NR -9.88379 53.2094 main 488 448 _____P____P___ -1 -9.88784 53.1439 99 -9.87974 53.2748 7 8 227
1898052S07056 1898 7 SI MM NOT_NAMED 1898-02-23 03:00:00 NR -10.1513 52.8979 main 442 403 _____P____P___ -1 -10.1522 52.8367 99 -10.1504 52.9592 7 8 231
1898052S07056 1898 7 SI MM NOT_NAMED 1898-02-23 06:00:00 NR -10.4000 52.5500 reunion main 403 354 _____O____O___ -1 -10.4000 52.5000 99 9.90000 -10.4000 52.6000 7 9 237
1898052S07056 1898 7 SI MM NOT_NAMED 1898-02-23 09:00:00 NR -10.6158 52.1744 main 354 305 _____P____P___ -1 -10.6020 52.1356 99 -10.6295 52.2133 7 9 242
1898052S07056 1898 7 SI MM NOT_NAMED 1898-02-23 12:00:00 NR -10.8128 51.7611 main 305 246 _____P____P___ -1 -10.7884 51.7399 99 -10.8372 51.7822 7 9 246
1898052S07056 1898 7 SI MM NOT_NAMED 1898-02-23 15:00:00 NR -10.9948 51.3142 main 246 198 _____P____P___ -1 -10.9633 51.3183 99 -11.0263 51.3101 7 10 249
1898052S07056 1898 7 SI MM NOT_NAMED 1898-02-23 18:00:00 NR -11.1652 50.8379 main 189 148 _____P____O___ -1 -11.1303 50.8759 99 -11.2000 50.8000 7 10 252
1898052S07056 1898 7 SI MM NOT_NAMED 1898-02-23 21:00:00 NR -11.3129 50.3269 main 140 95 _____P____P___ -1 -11.2936 50.4177 99 -11.3322 50.2360 7 11 254
1898052S07056 1898 7 SI MM NOT_NAMED 1898-02-24 00:00:00 NR -11.4562 49.7953 main 86 55 _____P____P___ -1 -11.4570 49.9489 99 -11.4555 49.6417 7 11 254
1898052S07056 1898 7 SI MM NOT_NAMED 1898-02-24 03:00:00 NR -11.6127 49.2631 main 55 46 _____P____P___ -1 -11.6244 49.4747 99 -11.6009 49.0516 7 11 251
1898052S07056 1898 7 SI MM NOT_NAMED 1898-02-24 06:00:00 NR -11.8000 48.7500 reunion main 54 54 _____O____O___ -1 -11.8000 49.0000 99 9.90000 -11.8000 48.5000 7 11 246
1898052S07056 1898 7 SI MM NOT_NAMED 1898-02-24 09:00:00 NR -12.0534 48.2627 main 70 70 _____P____P___ -1 -12.0067 48.5054 99 -12.1002 48.0199 7 11 240
1898052S07056 1898 7 SI MM NOT_NAMED 1898-02-24 12:00:00 NR -12.3376 47.7921 main 110 109 _____P____P___ -1 -12.2207 48.0014 99 -12.4545 47.5828 7 11 237
1898052S07056 1898 7 SI MM NOT_NAMED 1898-02-24 15:00:00 NR -12.6354 47.3382 main 135 124 _____P____P___ -1 -12.4392 47.4972 99 -12.8315 47.1792 7 11 236
1898052S07056 1898 7 SI MM NOT_NAMED 1898-02-24 18:00:00 NR -12.9296 46.9010 main 140 133 _____P____O___ -1 -12.6592 47.0020 99 -13.2000 46.8000 7 10 236
1898052S07056 1898 7 SI MM NOT_NAMED 1898-02-24 21:00:00 NR -13.2083 46.4646 main 161 161 _____P____P___ -1 -12.8780 46.5252 99 -13.5386 46.4040 7 10 236
1898052S07056 1898 7 SI MM NOT_NAMED 1898-02-25 00:00:00 NR -13.4764 46.0544 main 195 195 _____P____P___ -1 -13.0929 46.0763 99 -13.8599 46.0326 7 9 236
1898052S07056 1898 7 SI MM NOT_NAMED 1898-02-25 03:00:00 NR -13.7261 45.6798 main 213 205 _____P____P___ -1 -13.3011 45.6647 99 -14.1512 45.6948 7 8 235
1898052S07056 1898 7 SI MM NOT_NAMED 1898-02-25 06:00:00 NR -13.9500 45.3500 reunion main 211 206 _____O____O___ -1 -13.5000 45.3000 99 9.90000 -14.4000 45.4000 7 7 235
1898052S07056 1898 7 SI MM NOT_NAMED 1898-02-25 09:00:00 NR -14.1246 45.0857 main 208 191 _____P____P___ -1 -13.6645 45.0110 99 -14.5847 45.1604 7 6 235
1898052S07056 1898 7 SI MM NOT_NAMED 1898-02-25 12:00:00 NR -14.2743 44.8653 main 191 181 _____P____P___ -1 -13.8191 44.7689 99 -14.7296 44.9618 7 5 234
1898052S07056 1898 7 SI MM NOT_NAMED 1898-02-25 15:00:00 NR -14.4141 44.6736 main 184 169 _____P____P___ -1 -13.9685 44.5649 99 -14.8597 44.7823 7 5 232
1898052S07056 1898 7 SI MM NOT_NAMED 1898-02-25 18:00:00 NR -14.5587 44.4949 main 169 163 _____P____O___ -1 -14.1174 44.3898 99 -15.0000 44.6000 7 5 229
1898052S07056 1898 7 SI MM NOT_NAMED 1898-02-25 21:00:00 NR -14.7198 44.3105 main 168 156 _____P____P___ -1 -14.2704 44.2349 99 -15.1693 44.3860 7 5 227
1898052S07056 1898 7 SI MM NOT_NAMED 1898-02-26 00:00:00 NR -14.8935 44.1278 main 159 140 _____P____P___ -1 -14.4321 44.0909 99 -15.3549 44.1647 7 5 224
1898052S07056 1898 7 SI MM NOT_NAMED 1898-02-26 03:00:00 NR -15.0851 43.9425 main 144 129 _____P____P___ -1 -14.6071 43.9490 99 -15.5631 43.9360 7 5 222
1898052S07056 1898 7 SI MM NOT_NAMED 1898-02-26 06:00:00 NR -15.3000 43.7500 reunion main 129 123 _____O____O___ -1 -14.8000 43.8000 99 9.90000 -15.8000 43.7000 7 6 222
1898052S07056 1898 7 SI MM NOT_NAMED 1898-02-26 09:00:00 NR -15.5431 43.5116 main 131 124 _____P____P___ -1 -15.0312 43.5822 99 -16.0551 43.4410 7 7 222
1898052S07056 1898 7 SI MM NOT_NAMED 1898-02-26 12:00:00 NR -15.8101 43.2685 main 130 130 _____P____P___ -1 -15.2800 43.3595 99 -16.3401 43.1776 7 7 220
1898052S07056 1898 7 SI MM NOT_NAMED 1898-02-26 15:00:00 NR -16.0986 43.0311 main 151 149 _____P____P___ -1 -15.5421 43.1368 99 -16.6551 42.9253 7 7 216
1898052S07056 1898 7 SI MM NOT_NAMED 1898-02-26 18:00:00 NR -16.4065 42.8095 main 164 159 _____P____O___ -1 -15.8131 42.9191 99 -17.0000 42.7000 7 8 213
1898052S07056 1898 7 SI MM NOT_NAMED 1898-02-26 21:00:00 NR -16.7238 42.6042 main 164 158 _____P____P___ -1 -16.0886 42.7114 99 -17.3590 42.4969 7 8 210
1898052S07056 1898 7 SI MM NOT_NAMED 1898-02-27 00:00:00 NR -17.0560 42.4221 main 165 162 _____P____P___ -1 -16.3645 42.5189 99 -17.7474 42.3252 7 8 205
1898052S07056 1898 7 SI MM NOT_NAMED 1898-02-27 03:00:00 NR -17.3993 42.2688 main 170 170 _____P____P___ -1 -16.6364 42.3467 99 -18.1622 42.1908 7 7 201
1898052S07056 1898 7 SI MM NOT_NAMED 1898-02-27 06:00:00 NR -17.7500 42.1500 reunion main 181 183 _____O____O___ -1 -16.9000 42.2000 99 9.90000 -18.6000 42.1000 7 7 196
1898052S07056 1898 7 SI MM NOT_NAMED 1898-02-27 09:00:00 NR -18.0875 42.0652 main 200 200 _____P____P___ -1 -17.1176 42.0859 99 -19.0584 42.0405 7 7 191
1898052S07056 1898 7 SI MM NOT_NAMED 1898-02-27 12:00:00 NR -18.4307 42.0144 main 211 211 _____P____P___ -1 -17.3264 41.9965 99 -19.5367 42.0249 7 7 186
1898052S07056 1898 7 SI MM NOT_NAMED 1898-02-27 15:00:00 NR -18.7759 41.9912 main 215 215 _____P____P___ -1 -17.5319 41.9285 99 -20.0217 42.0469 7 7 0
1898052S07056 1898 7 SI MM NOT_NAMED 1898-02-27 18:00:00 NR -19.1198 41.9894 main 224 224 _____P____O___ -1 -17.7395 41.8788 99 -20.5000 42.1000 7 5 0
1898052S07056 1898 7 SI MM NOT_NAMED 1898-02-27 21:00:00 NR -19.2379 41.9665 main 228 228 _____P________ -1 -17.9547 41.8443 99 7 1 194
1898052S07056 1898 7 SI MM NOT_NAMED 1898-02-28 00:00:00 NR -19.2527 41.9423 main 242 234 _____P________ -1 -18.1829 41.8218 99 7 1 337
1898052S07056 1898 7 SI MM NOT_NAMED 1898-02-28 03:00:00 NR -19.1115 41.9006 main 234 228 _____P________ -1 -18.4295 41.8081 99 7 6 346
1898052S07056 1898 7 SI MM NOT_NAMED 1898-02-28 06:00:00 NR -18.7000 41.8000 reunion main 234 234 _____O________ -1 -18.7000 41.8000 99 9.90000 7 2 305
1898052S07056 1898 7 SI MM NOT_NAMED 1898-02-28 09:00:00 NR -18.9958 41.7299 main 251 251 _____P________ -1 -18.9958 41.7299 99 7 6 192
1898052S07056 1898 7 SI MM NOT_NAMED 1898-02-28 12:00:00 NR -19.3128 41.6619 main 262 262 _____P________ -1 -19.3128 41.6619 99 7 7 190
1898052S07056 1898 7 SI MM NOT_NAMED 1898-02-28 15:00:00 NR -19.6499 41.6048 main 274 252 _____P________ -1 -19.6499 41.6048 99 7 7 187
1898052S07056 1898 7 SI MM NOT_NAMED 1898-02-28 18:00:00 NR -20.0061 41.5675 main 252 226 _____P________ -1 -20.0061 41.5675 99 7 7 183
1898052S07056 1898 7 SI MM NOT_NAMED 1898-02-28 21:00:00 NR -20.3803 41.5591 main 226 212 _____P________ -1 -20.3803 41.5591 99 7 8 0
1898052S07056 1898 7 SI MM NOT_NAMED 1898-03-01 00:00:00 NR -20.7714 41.5888 main 208 187 _____P________ -1 -20.7714 41.5888 99 7 8 173
1898052S07056 1898 7 SI MM NOT_NAMED 1898-03-01 03:00:00 NR -21.1783 41.6660 main 187 159 _____P________ -1 -21.1783 41.6660 99 7 9 166
1898052S07056 1898 7 SI MM NOT_NAMED 1898-03-01 06:00:00 NR -21.6000 41.8000 reunion main 159 125 _____O________ -1 -21.6000 41.8000 99 9.90000 7 10 160
1898052S07056 1898 7 SI MM NOT_NAMED 1898-03-01 09:00:00 NR -22.0683 42.0214 main 124 95 _____P________ -1 -22.0683 42.0214 99 7 11 154
1898052S07056 1898 7 SI MM NOT_NAMED 1898-03-01 12:00:00 NR -22.5586 42.3031 main 98 82 _____P________ -1 -22.5586 42.3031 99 7 11 150
1898052S07056 1898 7 SI MM NOT_NAMED 1898-03-01 15:00:00 NR -23.0591 42.6336 main 88 65 _____P________ -1 -23.0591 42.6336 99 7 12 147
1898052S07056 1898 7 SI MM NOT_NAMED 1898-03-01 18:00:00 NR -23.5579 43.0013 main 62 30 _____P________ -1 -23.5579 43.0013 99 7 12 145
1898052S07056 1898 7 SI MM NOT_NAMED 1898-03-01 21:00:00 NR -24.0430 43.3943 main 30 0 _____P________ -1 -24.0430 43.3943 99 7 18 140
1898052S07056 1898 7 SI MM NOT_NAMED 1898-03-02 00:00:00 NR -24.9743 44.2915 main 0 0 _____P________ -1 -24.5028 43.8002 99 7 22 137
1898052S07056 1898 7 SI MM NOT_NAMED 1898-03-02 03:00:00 NR -25.6276 44.9973 main 11 11 _____P________ -1 -24.9256 44.2064 99 7 10 136
1898052S07056 1898 7 SI MM NOT_NAMED 1898-03-02 06:00:00 NR -25.6800 45.0600 reunion main 15 11 _____O____O___ -1 -25.3000 44.6000 99 9.90000 -27.2000 46.9000 7 0 296
1898052S07056 1898 7 SI MM NOT_NAMED 1898-03-02 09:00:00 NR -25.6106 44.9570 main 11 11 _____P________ -1 -25.6106 44.9570 99 7 3 131
1898052S07056 1898 7 SI MM NOT_NAMED 1898-03-02 12:00:00 NR -25.8776 45.3104 main 33 33 _____P________ -1 -25.8776 45.3104 99 7 8 128
1898052S07056 1898 7 SI MM NOT_NAMED 1898-03-02 15:00:00 NR -26.1052 45.6556 main 59 59 _____P________ -1 -26.1052 45.6556 99 7 7 125
1898052S07056 1898 7 SI MM NOT_NAMED 1898-03-02 18:00:00 NR -26.2975 45.9881 main 92 92 _____P________ -1 -26.2975 45.9881 99 7 7 121
1898052S07056 1898 7 SI MM NOT_NAMED 1898-03-02 21:00:00 NR -26.4589 46.3033 main 128 128 _____P________ -1 -26.4589 46.3033 99 7 6 118
1898052S07056 1898 7 SI MM NOT_NAMED 1898-03-03 00:00:00 NR -26.5936 46.5967 main 156 156 _____P________ -1 -26.5936 46.5967 99 7 6 116
1898052S07056 1898 7 SI MM NOT_NAMED 1898-03-03 03:00:00 NR -26.7059 46.8637 main 167 167 _____P________ -1 -26.7059 46.8637 99 7 5 115
1898052S07056 1898 7 SI MM NOT_NAMED 1898-03-03 06:00:00 NR -26.8000 47.1000 reunion main 181 181 _____O________ -1 -26.8000 47.1000 99 9.90000 7 4 114
1898052S07056 1898 7 SI MM NOT_NAMED 1898-03-03 09:00:00 NR -26.8799 47.3025 main 196 196 _____P________ -1 -26.8799 47.3025 99 7 4 114
1898052S07056 1898 7 SI MM NOT_NAMED 1898-03-03 12:00:00 NR -26.9477 47.4741 main 202 202 _____P________ -1 -26.9477 47.4741 99 7 3 114
1898052S07056 1898 7 SI MM NOT_NAMED 1898-03-03 15:00:00 NR -27.0053 47.6191 main 216 216 _____P________ -1 -27.0053 47.6191 99 7 3 114
1898052S07056 1898 7 SI MM NOT_NAMED 1898-03-03 18:00:00 NR -27.0544 47.7419 main 230 230 _____P________ -1 -27.0544 47.7419 99 7 2 115
1898052S07056 1898 7 SI MM NOT_NAMED 1898-03-03 21:00:00 NR -27.0967 47.8470 main 234 234 _____P________ -1 -27.0967 47.8470 99 7 2 114
1898052S07056 1898 7 SI MM NOT_NAMED 1898-03-04 00:00:00 NR -27.1339 47.9387 main 238 238 _____P________ -1 -27.1339 47.9387 99 7 2 115
1898052S07056 1898 7 SI MM NOT_NAMED 1898-03-04 03:00:00 NR -27.1678 48.0216 main 253 253 _____P________ -1 -27.1678 48.0216 99 7 2 115
1898052S07056 1898 7 SI MM NOT_NAMED 1898-03-04 06:00:00 NR -27.2000 48.1000 reunion main 258 _____O________ -1 -27.2000 48.1000 99 9.90000 7 2 114

About IBTrACS Database

This database is a web-friendly format of International Best Track Archive for Climate Stewardship (IBTrACS), a global best track data archive curated by NOAA dating back to 1842.

Updated: 2021-12-06